createdAt,value
2016-04-10T00:00:36.889Z,19
2016-04-10T00:01:36.891Z,19
2016-04-10T00:02:36.894Z,19
2016-04-10T00:03:36.897Z,18.9
2016-04-10T00:04:36.916Z,19
2016-04-10T00:05:36.902Z,19
2016-04-10T00:06:36.921Z,19
2016-04-10T00:07:36.939Z,19.48
2016-04-10T00:08:36.942Z,19.58
2016-04-10T00:09:36.944Z,19.48
2016-04-10T00:10:36.932Z,19
2016-04-10T00:11:36.949Z,19.1
2016-04-10T00:12:36.952Z,19.2
2016-04-10T00:13:36.955Z,19.58
2016-04-10T00:14:36.957Z,19.1
2016-04-10T00:15:36.961Z,19.2
2016-04-10T00:16:36.979Z,19.58
2016-04-10T00:17:36.981Z,19.58
2016-04-10T00:18:36.985Z,19.48
2016-04-10T00:19:36.987Z,19.48
2016-04-10T00:20:36.990Z,19.48
2016-04-10T00:21:37.008Z,19.77
2016-04-10T00:22:37.011Z,19.58
2016-04-10T00:23:37.013Z,19.38
2016-04-10T00:24:37.017Z,19.77
2016-04-10T00:25:37.034Z,19.58
2016-04-10T00:26:37.037Z,19.58
2016-04-10T00:27:37.039Z,19.58
2016-04-10T00:28:37.042Z,19.68
2016-04-10T00:29:37.045Z,19.58
2016-04-10T00:30:37.047Z,19.68
2016-04-10T00:31:37.050Z,19.58
2016-04-10T00:32:37.069Z,19.58
2016-04-10T00:33:37.072Z,19.48
2016-04-10T00:34:37.074Z,19.38
2016-04-10T00:35:37.077Z,19.58
2016-04-10T00:36:37.095Z,19.38
2016-04-10T00:37:37.097Z,19.58
2016-04-10T00:38:37.101Z,19.68
2016-04-10T00:39:37.103Z,19.58
2016-04-10T00:40:37.106Z,19.48
2016-04-10T00:41:37.124Z,19.58
2016-04-10T00:42:37.111Z,19.48
2016-04-10T00:43:37.130Z,19.77
2016-04-10T00:44:37.148Z,19.68
2016-04-10T00:45:37.135Z,19.58
2016-04-10T00:46:37.153Z,19.58
2016-04-10T00:47:37.156Z,19.48
2016-04-10T00:48:37.159Z,19.58
2016-04-10T00:49:37.162Z,19.58
2016-04-10T00:50:37.164Z,19.68
2016-04-10T00:51:37.167Z,19.77
2016-04-10T00:52:37.170Z,19.68
2016-04-10T00:53:37.188Z,19.68
2016-04-10T00:54:37.190Z,19.58
2016-04-10T00:55:37.193Z,19.58
2016-04-10T00:56:37.195Z,19.58
2016-04-10T00:57:37.214Z,19.58
2016-04-10T00:58:37.217Z,19.48
2016-04-10T00:59:37.219Z,19
2016-04-10T01:00:37.222Z,19
2016-04-10T01:01:37.241Z,19.1
2016-04-10T01:02:37.244Z,19
2016-04-10T01:03:37.247Z,18.9
2016-04-10T01:04:37.249Z,19
2016-04-10T01:05:37.293Z,18.9
2016-04-10T01:06:37.334Z,19.29
2016-04-10T01:07:37.378Z,19
2016-04-10T01:08:37.421Z,19.2
2016-04-10T01:09:37.479Z,19
2016-04-10T01:10:37.490Z,19
2016-04-10T01:11:37.522Z,19
2016-04-10T01:12:37.524Z,19
2016-04-10T01:13:37.542Z,19.2
2016-04-10T01:14:37.574Z,19.29
2016-04-10T01:15:36.850Z,19.38
2016-04-10T01:16:37.593Z,19.29
2016-04-10T01:17:37.616Z,19
2016-04-10T01:18:37.623Z,19.2
2016-04-10T01:19:37.631Z,19.2
2016-04-10T01:20:37.637Z,19.29
2016-04-10T01:21:37.641Z,19.2
2016-04-10T01:22:37.678Z,19.2
2016-04-10T01:23:37.666Z,19
2016-04-10T01:24:37.671Z,19.29
2016-04-10T01:25:37.676Z,19.2
2016-04-10T01:26:37.694Z,19.2
2016-04-10T01:27:37.713Z,19.29
2016-04-10T01:28:37.686Z,19.38
2016-04-10T01:29:37.705Z,19.29
2016-04-10T01:30:37.708Z,19.2
2016-04-10T01:31:37.711Z,19.2
2016-04-10T01:32:37.714Z,19.29
2016-04-10T01:33:37.718Z,19
2016-04-10T01:34:37.735Z,19.48
2016-04-10T01:35:37.738Z,19.2
2016-04-10T01:36:37.741Z,19.29
2016-04-10T01:37:37.743Z,19.1
2016-04-10T01:38:37.747Z,19.1
2016-04-10T01:39:37.765Z,19.29
2016-04-10T01:40:37.768Z,19
2016-04-10T01:41:37.770Z,19.38
2016-04-10T01:42:37.773Z,19.38
2016-04-10T01:43:37.792Z,19.38
2016-04-10T01:44:37.778Z,19
2016-04-10T01:45:37.798Z,19.38
2016-04-10T01:46:37.800Z,19.2
2016-04-10T01:47:37.803Z,19.1
2016-04-10T01:48:37.806Z,19.38
2016-04-10T01:49:37.823Z,19.29
2016-04-10T01:50:37.826Z,19
2016-04-10T01:51:37.828Z,19.1
2016-04-10T01:52:37.831Z,19.1
2016-04-10T01:53:37.834Z,19.38
2016-04-10T01:54:37.836Z,19.29
2016-04-10T01:55:37.839Z,19.1
2016-04-10T01:56:37.858Z,19.38
2016-04-10T01:57:37.860Z,19.1
2016-04-10T01:58:37.863Z,19.29
2016-04-10T01:59:37.881Z,19
2016-04-10T02:00:37.884Z,19
2016-04-10T02:01:37.886Z,19.1
2016-04-10T02:02:37.889Z,19.1
2016-04-10T02:03:37.892Z,19
2016-04-10T02:04:37.910Z,19
2016-04-10T02:05:37.913Z,19
2016-04-10T02:06:37.915Z,19.29
2016-04-10T02:07:38.012Z,19.29
2016-04-10T02:08:37.922Z,19.1
2016-04-10T02:09:37.924Z,19
2016-04-10T02:10:37.943Z,19
2016-04-10T02:11:37.945Z,19
2016-04-10T02:12:37.948Z,19
2016-04-10T02:13:37.951Z,19
2016-04-10T02:14:37.953Z,19
2016-04-10T02:15:37.956Z,19
2016-04-10T02:16:37.974Z,19.38
2016-04-10T02:17:37.976Z,19.1
2016-04-10T02:18:37.980Z,19
2016-04-10T02:19:37.982Z,19
2016-04-10T02:20:38.001Z,19
2016-04-10T02:21:37.987Z,18.9
2016-04-10T02:22:38.006Z,18.9
2016-04-10T02:23:38.009Z,18.9
2016-04-10T02:24:38.011Z,18.9
2016-04-10T02:25:38.030Z,19.1
2016-04-10T02:26:38.032Z,19.1
2016-04-10T02:27:38.035Z,19
2016-04-10T02:28:38.038Z,19.38
2016-04-10T02:29:38.056Z,19
2016-04-10T02:30:38.059Z,19
2016-04-10T02:31:38.061Z,19
2016-04-10T02:32:38.063Z,19.38
2016-04-10T02:33:38.067Z,19
2016-04-10T02:34:38.069Z,19
2016-04-10T02:35:38.088Z,19.38
2016-04-10T02:36:38.090Z,19.38
2016-04-10T02:37:38.093Z,19.29
2016-04-10T02:38:38.096Z,19.29
2016-04-10T02:39:38.098Z,19.1
2016-04-10T02:40:38.116Z,18.9
2016-04-10T02:41:38.119Z,19
2016-04-10T02:42:38.122Z,19.38
2016-04-10T02:43:38.141Z,18.9
2016-04-10T02:44:38.143Z,19.2
2016-04-10T02:45:38.130Z,19.2
2016-04-10T02:46:38.148Z,19.29
2016-04-10T02:47:38.151Z,19.29
2016-04-10T02:48:38.154Z,19.2
2016-04-10T02:49:38.156Z,19.2
2016-04-10T02:50:38.175Z,19.2
2016-04-10T02:51:38.161Z,19.2
2016-04-10T02:52:38.164Z,19.1
2016-04-10T02:53:38.183Z,19.2
2016-04-10T02:54:38.186Z,19.1
2016-04-10T02:55:38.189Z,19.1
2016-04-10T02:56:38.191Z,19.38
2016-04-10T02:57:38.209Z,19
2016-04-10T02:58:38.212Z,19
2016-04-10T02:59:38.214Z,19.29
2016-04-10T03:00:38.233Z,19.1
2016-04-10T03:01:38.235Z,19.38
2016-04-10T03:02:38.238Z,19.38
2016-04-10T03:03:38.258Z,19.38
2016-04-10T03:04:38.244Z,19.38
2016-04-10T03:05:38.246Z,18.9
2016-04-10T03:06:38.265Z,19.2
2016-04-10T03:07:38.268Z,19
2016-04-10T03:08:38.133Z,18.9
2016-04-10T03:09:38.275Z,19
2016-04-10T03:10:38.278Z,19.2
2016-04-10T03:11:38.281Z,18.9
2016-04-10T03:12:38.283Z,19.2
2016-04-10T03:13:38.302Z,19.1
2016-04-10T03:14:38.304Z,19.38
2016-04-10T03:15:38.307Z,19
2016-04-10T03:16:38.310Z,19
2016-04-10T03:17:38.313Z,18.52
2016-04-10T03:18:38.332Z,18.62
2016-04-10T03:19:38.334Z,18.9
2016-04-10T03:20:38.337Z,19
2016-04-10T03:21:38.371Z,19.29
2016-04-10T03:22:38.342Z,19.38
2016-04-10T03:23:38.360Z,19
2016-04-10T03:24:38.362Z,19.2
2016-04-10T03:25:38.382Z,19.29
2016-04-10T03:26:38.368Z,19.38
2016-04-10T03:27:38.387Z,19.29
2016-04-10T03:28:38.374Z,18.9
2016-04-10T03:29:38.392Z,18.9
2016-04-10T03:30:38.395Z,18.42
2016-04-10T03:31:38.398Z,19.1
2016-04-10T03:32:38.400Z,19.29
2016-04-10T03:33:38.419Z,19.2
2016-04-10T03:34:38.421Z,19.38
2016-04-10T03:35:38.424Z,19
2016-04-10T03:36:38.427Z,19.2
2016-04-10T03:37:38.444Z,19.29
2016-04-10T03:38:38.433Z,19.1
2016-04-10T03:39:38.450Z,19.29
2016-04-10T03:40:38.453Z,19.2
2016-04-10T03:41:38.456Z,19.38
2016-04-10T03:42:38.474Z,19
2016-04-10T03:43:38.477Z,19
2016-04-10T03:44:38.479Z,19
2016-04-10T03:45:38.497Z,19.2
2016-04-10T03:46:38.485Z,19
2016-04-10T03:47:38.488Z,19
2016-04-10T03:48:38.491Z,19.1
2016-04-10T03:49:38.507Z,19.1
2016-04-10T03:50:38.511Z,18.9
2016-04-10T03:51:38.514Z,19.1
2016-04-10T03:52:38.516Z,19.09
2016-04-10T03:53:38.519Z,19
2016-04-10T03:54:38.521Z,18.9
2016-04-10T03:55:38.540Z,19
2016-04-10T03:56:38.543Z,19.1
2016-04-10T03:57:38.546Z,19.58
2016-04-10T03:58:38.564Z,18.9
2016-04-10T03:59:38.566Z,19
2016-04-10T04:00:38.553Z,19
2016-04-10T04:01:38.573Z,19
2016-04-10T04:02:38.575Z,19.1
2016-04-10T04:03:38.578Z,19.1
2016-04-10T04:04:38.595Z,18.9
2016-04-10T04:05:38.598Z,19
2016-04-10T04:06:38.601Z,19
2016-04-10T04:07:38.603Z,18.9
2016-04-10T04:08:38.606Z,19
2016-04-10T04:09:38.609Z,19.1
2016-04-10T04:10:38.628Z,19
2016-04-10T04:11:38.631Z,18.99
2016-04-10T04:12:38.633Z,19
2016-04-10T04:13:38.636Z,18.9
2016-04-10T04:14:38.638Z,19
2016-04-10T04:15:38.641Z,19
2016-04-10T04:16:38.660Z,19.1
2016-04-10T04:17:38.662Z,19.1
2016-04-10T04:18:38.680Z,18.9
2016-04-10T04:19:38.510Z,18.9
2016-04-10T04:20:38.685Z,19.09
2016-04-10T04:21:38.688Z,19
2016-04-10T04:22:38.676Z,18.9
2016-04-10T04:23:38.694Z,19
2016-04-10T04:24:38.696Z,19
2016-04-10T04:25:38.715Z,18.9
2016-04-10T04:26:38.702Z,18.8
2016-04-10T04:27:38.720Z,19
2016-04-10T04:28:38.723Z,19
2016-04-10T04:29:38.726Z,18.99
2016-04-10T04:30:38.728Z,19
2016-04-10T04:31:38.731Z,19
2016-04-10T04:32:38.749Z,18.99
2016-04-10T04:33:38.768Z,19.2
2016-04-10T04:34:38.754Z,19
2016-04-10T04:35:38.757Z,18.9
2016-04-10T04:36:38.759Z,19.38
2016-04-10T04:37:38.762Z,19.38
2016-04-10T04:38:38.812Z,19
2016-04-10T04:39:38.783Z,19.1
2016-04-10T04:40:38.802Z,19.1
2016-04-10T04:41:38.789Z,18.9
2016-04-10T04:42:38.792Z,19
2016-04-10T04:43:38.810Z,19.18
2016-04-10T04:44:38.812Z,19.1
2016-04-10T04:45:38.831Z,19
2016-04-10T04:46:38.833Z,19
2016-04-10T04:47:38.835Z,19
2016-04-10T04:48:38.839Z,18.99
2016-04-10T04:49:38.841Z,18.99
2016-04-10T04:50:38.849Z,18.9
2016-04-10T04:51:38.852Z,19
2016-04-10T04:52:38.854Z,19.09
2016-04-10T04:53:38.857Z,19
2016-04-10T04:54:38.876Z,18.99
2016-04-10T04:55:38.863Z,18.9
2016-04-10T04:56:38.725Z,19.09
2016-04-10T04:57:38.883Z,19.1
2016-04-10T04:58:38.887Z,19
2016-04-10T04:59:38.889Z,18.9
2016-04-10T05:00:38.906Z,18.99
2016-04-10T05:01:38.910Z,19.1
2016-04-10T05:02:38.912Z,19.29
2016-04-10T05:03:38.915Z,19
2016-04-10T05:04:38.918Z,18.9
2016-04-10T05:05:38.920Z,19
2016-04-10T05:06:38.939Z,19
2016-04-10T05:07:38.942Z,18.9
2016-04-10T05:08:38.944Z,18.9
2016-04-10T05:09:38.947Z,19
2016-04-10T05:10:38.950Z,18.99
2016-04-10T05:11:38.968Z,18.99
2016-04-10T05:12:38.972Z,18.99
2016-04-10T05:13:38.974Z,18.9
2016-04-10T05:14:38.992Z,19.09
2016-04-10T05:15:38.994Z,19.67
2016-04-10T05:16:38.982Z,18.99
2016-04-10T05:17:38.984Z,18.99
2016-04-10T05:18:39.003Z,18.99
2016-04-10T05:19:39.005Z,19.09
2016-04-10T05:20:39.007Z,19
2016-04-10T05:21:39.011Z,19
2016-04-10T05:22:39.029Z,18.99
2016-04-10T05:23:39.031Z,19
2016-04-10T05:24:39.035Z,19
2016-04-10T05:25:39.053Z,19.1
2016-04-10T05:26:38.899Z,19.1
2016-04-10T05:27:39.058Z,18.99
2016-04-10T05:28:39.061Z,19
2016-04-10T05:29:39.064Z,19
2016-04-10T05:30:39.081Z,18.9
2016-04-10T05:31:39.069Z,18.99
2016-04-10T05:32:39.087Z,19
2016-04-10T05:33:39.089Z,18.9
2016-04-10T05:34:39.093Z,19
2016-04-10T05:35:39.095Z,19
2016-04-10T05:36:39.097Z,19
2016-04-10T05:37:39.117Z,19
2016-04-10T05:38:39.119Z,19.1
2016-04-10T05:39:39.152Z,19
2016-04-10T05:40:39.125Z,19.1
2016-04-10T05:41:39.142Z,19.1
2016-04-10T05:42:39.145Z,19
2016-04-10T05:43:39.148Z,19.1
2016-04-10T05:44:39.150Z,19
2016-04-10T05:45:39.153Z,19.77
2016-04-10T05:46:39.155Z,18.9
2016-04-10T05:47:39.190Z,19.2
2016-04-10T05:48:39.177Z,19.77
2016-04-10T05:49:39.180Z,19.2
2016-04-10T05:50:39.199Z,18.8
2016-04-10T05:51:39.185Z,19.2
2016-04-10T05:52:39.204Z,19.57
2016-04-10T05:53:39.206Z,19.47
2016-04-10T05:54:39.209Z,19.58
2016-04-10T05:55:39.212Z,19.68
2016-04-10T05:56:39.214Z,19.58
2016-04-10T05:57:39.218Z,19.57
2016-04-10T05:58:39.235Z,19.67
2016-04-10T05:59:39.237Z,19.67
2016-04-10T06:00:39.240Z,19.09
2016-04-10T06:01:39.243Z,19.38
2016-04-10T06:02:39.261Z,19.58
2016-04-10T06:03:39.248Z,19.58
2016-04-10T06:04:39.267Z,19.77
2016-04-10T06:05:39.270Z,19.47
2016-04-10T06:06:39.272Z,19.67
2016-04-10T06:07:39.275Z,19.58
2016-04-10T06:08:39.340Z,19.38
2016-04-10T06:09:39.296Z,19.48
2016-04-10T06:10:39.299Z,19.47
2016-04-10T06:11:39.302Z,19.57
2016-04-10T06:12:39.319Z,19.76
2016-04-10T06:13:39.323Z,19.57
2016-04-10T06:14:39.325Z,19.57
2016-04-10T06:15:39.327Z,19.57
2016-04-10T06:16:39.346Z,19.95
2016-04-10T06:17:39.349Z,19.95
2016-04-10T06:18:39.351Z,19.58
2016-04-10T06:19:39.354Z,19.68
2016-04-10T06:20:39.357Z,19.95
2016-04-10T06:21:39.360Z,19.57
2016-04-10T06:22:39.377Z,19.76
2016-04-10T06:23:39.374Z,19.57
2016-04-10T06:24:39.377Z,19.68
2016-04-10T06:25:39.384Z,19.67
2016-04-10T06:26:39.382Z,19.96
2016-04-10T06:27:39.416Z,19.67
2016-04-10T06:28:39.402Z,19.95
2016-04-10T06:29:39.405Z,19.67
2016-04-10T06:30:39.408Z,19.57
2016-04-10T06:31:39.410Z,19.47
2016-04-10T06:32:39.413Z,19.57
2016-04-10T06:33:39.416Z,19.47
2016-04-10T06:34:39.435Z,19.47
2016-04-10T06:35:39.437Z,19.47
2016-04-10T06:36:39.440Z,19.47
2016-04-10T06:37:39.443Z,19.47
2016-04-10T06:38:39.836Z,19.86
2016-04-10T06:39:39.463Z,19.38
2016-04-10T06:40:39.467Z,19
2016-04-10T06:41:39.469Z,19
2016-04-10T06:42:39.362Z,19.48
2016-04-10T06:43:39.475Z,19.28
2016-04-10T06:44:39.492Z,19.47
2016-04-10T06:45:39.339Z,19.67
2016-04-10T06:46:39.498Z,19.86
2016-04-10T06:47:39.516Z,19.67
2016-04-10T06:48:39.503Z,19.57
2016-04-10T06:49:39.522Z,19.47
2016-04-10T06:50:39.525Z,19.48
2016-04-10T06:51:39.527Z,19.47
2016-04-10T06:52:39.530Z,19.47
2016-04-10T06:53:39.533Z,19.57
2016-04-10T06:54:39.550Z,19.67
2016-04-10T06:55:39.553Z,19.57
2016-04-10T06:56:39.571Z,19.57
2016-04-10T06:57:39.575Z,19.67
2016-04-10T06:58:39.561Z,19.76
2016-04-10T06:59:39.579Z,19.76
2016-04-10T07:00:39.583Z,19.67
2016-04-10T07:01:39.585Z,19.67
2016-04-10T07:02:39.587Z,19.47
2016-04-10T07:03:39.607Z,19.47
2016-04-10T07:04:39.610Z,19.76
2016-04-10T07:05:39.627Z,19.86
2016-04-10T07:06:39.661Z,19.86
2016-04-10T07:07:39.618Z,19.67
2016-04-10T07:08:39.635Z,19.86
2016-04-10T07:09:39.637Z,19.76
2016-04-10T07:10:39.640Z,19.67
2016-04-10T07:11:39.643Z,19.67
2016-04-10T07:12:39.661Z,19.76
2016-04-10T07:13:39.665Z,19.67
2016-04-10T07:14:39.667Z,19.38
2016-04-10T07:15:39.670Z,19.67
2016-04-10T07:16:39.672Z,19.67
2016-04-10T07:17:39.675Z,19.67
2016-04-10T07:18:39.694Z,19.67
2016-04-10T07:19:39.696Z,19.67
2016-04-10T07:20:39.714Z,19.76
2016-04-10T07:21:39.717Z,19.67
2016-04-10T07:22:39.704Z,19.76
2016-04-10T07:23:39.723Z,19.76
2016-04-10T07:24:39.710Z,19.86
2016-04-10T07:25:39.713Z,19.57
2016-04-10T07:26:39.730Z,19.76
2016-04-10T07:27:39.733Z,19.76
2016-04-10T07:28:39.736Z,20.05
2016-04-10T07:29:39.754Z,19.67
2016-04-10T07:30:39.757Z,20.05
2016-04-10T07:31:39.760Z,19.76
2016-04-10T07:32:39.762Z,20.34
2016-04-10T07:33:39.766Z,19.76
2016-04-10T07:34:39.768Z,19.95
2016-04-10T07:35:39.786Z,19.38
2016-04-10T07:36:39.788Z,20.05
2016-04-10T07:37:39.791Z,20.05
2016-04-10T07:38:39.793Z,19.28
2016-04-10T07:39:39.796Z,20.05
2016-04-10T07:40:39.798Z,19.38
2016-04-10T07:41:39.818Z,19.76
2016-04-10T07:42:39.820Z,19.95
2016-04-10T07:43:39.823Z,20.15
2016-04-10T07:44:39.826Z,19.47
2016-04-10T07:45:39.859Z,19.95
2016-04-10T07:46:39.831Z,19.47
2016-04-10T07:47:39.850Z,19.38
2016-04-10T07:48:39.853Z,19.76
2016-04-10T07:49:39.855Z,19.86
2016-04-10T07:50:39.872Z,19.67
2016-04-10T07:51:39.875Z,19.76
2016-04-10T07:52:39.878Z,19.86
2016-04-10T07:53:39.881Z,19.76
2016-04-10T07:54:39.884Z,19.38
2016-04-10T07:55:39.886Z,19.76
2016-04-10T07:56:39.889Z,19.86
2016-04-10T07:57:39.908Z,19.76
2016-04-10T07:58:39.910Z,19.86
2016-04-10T07:59:39.913Z,19.95
2016-04-10T08:00:39.916Z,19.76
2016-04-10T08:01:39.934Z,19.67
2016-04-10T08:02:39.938Z,19.76
2016-04-10T08:03:39.940Z,19.76
2016-04-10T08:04:39.943Z,20.15
2016-04-10T08:05:39.945Z,19.95
2016-04-10T08:06:39.948Z,19.95
2016-04-10T08:07:39.950Z,20.05
2016-04-10T08:08:39.953Z,20.15
2016-04-10T08:09:39.971Z,19.95
2016-04-10T08:10:39.973Z,19.76
2016-04-10T08:11:39.977Z,20.15
2016-04-10T08:12:39.995Z,20.05
2016-04-10T08:13:39.981Z,19.95
2016-04-10T08:14:40.001Z,19.76
2016-04-10T08:15:40.003Z,19.86
2016-04-10T08:16:40.005Z,19.67
2016-04-10T08:17:40.008Z,19.95
2016-04-10T08:18:40.011Z,19.86
2016-04-10T08:19:40.014Z,19.86
2016-04-10T08:20:40.032Z,19.95
2016-04-10T08:21:40.034Z,19.76
2016-04-10T08:22:40.037Z,19.76
2016-04-10T08:23:40.039Z,19.95
2016-04-10T08:24:40.058Z,19.95
2016-04-10T08:25:40.060Z,19.95
2016-04-10T08:26:40.064Z,19.86
2016-04-10T08:27:40.082Z,19.76
2016-04-10T08:28:40.069Z,19.76
2016-04-10T08:29:40.072Z,19.95
2016-04-10T08:30:40.090Z,19.76
2016-04-10T08:31:40.093Z,20.05
2016-04-10T08:32:40.096Z,19.67
2016-04-10T08:33:40.098Z,19.95
2016-04-10T08:34:40.101Z,19.95
2016-04-10T08:35:40.104Z,19.67
2016-04-10T08:36:40.121Z,19.95
2016-04-10T08:37:40.125Z,19.95
2016-04-10T08:38:40.127Z,19.76
2016-04-10T08:39:40.145Z,19.95
2016-04-10T08:40:40.133Z,19.95
2016-04-10T08:41:40.151Z,20.05
2016-04-10T08:42:40.153Z,19.95
2016-04-10T08:43:40.157Z,19.95
2016-04-10T08:44:40.159Z,19.76
2016-04-10T08:45:40.178Z,19.86
2016-04-10T08:46:40.181Z,19.86
2016-04-10T08:47:40.183Z,19.95
2016-04-10T08:48:40.185Z,19.95
2016-04-10T08:49:40.189Z,19.67
2016-04-10T08:50:40.191Z,19.86
2016-04-10T08:51:40.193Z,19.67
2016-04-10T08:52:40.211Z,19.86
2016-04-10T08:53:40.214Z,19.86
2016-04-10T08:54:40.217Z,19.76
2016-04-10T08:55:40.219Z,19.95
2016-04-10T08:56:40.223Z,19.86
2016-04-10T08:57:40.225Z,19.86
2016-04-10T08:58:40.243Z,19.76
2016-04-10T08:59:40.247Z,19.95
2016-04-10T09:00:40.249Z,19.86
2016-04-10T09:01:40.267Z,19.85
2016-04-10T09:02:40.269Z,19.95
2016-04-10T09:03:40.257Z,19.76
2016-04-10T09:04:40.275Z,19.86
2016-04-10T09:05:40.277Z,19.76
2016-04-10T09:06:40.296Z,20.15
2016-04-10T09:07:40.283Z,20.15
2016-04-10T09:08:40.301Z,19.86
2016-04-10T09:09:40.305Z,19.95
2016-04-10T09:10:40.307Z,19.86
2016-04-10T09:11:40.309Z,19.86
2016-04-10T09:12:40.734Z,19.86
2016-04-10T09:13:40.331Z,19.95
2016-04-10T09:14:40.334Z,19.86
2016-04-10T09:15:40.336Z,19.86
2016-04-10T09:16:40.339Z,19.95
2016-04-10T09:17:40.357Z,19.86
2016-04-10T09:18:40.359Z,19.95
2016-04-10T09:19:40.362Z,19.95
2016-04-10T09:20:40.364Z,19.95
2016-04-10T09:21:40.368Z,19.76
2016-04-10T09:22:40.980Z,19.86
2016-04-10T09:23:40.373Z,20.05
2016-04-10T09:24:40.392Z,19.86
2016-04-10T09:25:40.378Z,19.86
2016-04-10T09:26:40.397Z,19.76
2016-04-10T09:27:40.399Z,19.86
2016-04-10T09:28:40.418Z,19.86
2016-04-10T09:29:40.421Z,19.86
2016-04-10T09:30:40.424Z,19.86
2016-04-10T09:31:40.426Z,19.95
2016-04-10T09:32:40.429Z,19.86
2016-04-10T09:33:40.432Z,20.15
2016-04-10T09:34:40.434Z,19.86
2016-04-10T09:35:40.437Z,19.95
2016-04-10T09:36:40.455Z,19.95
2016-04-10T09:37:40.474Z,19.76
2016-04-10T09:38:40.460Z,19.95
2016-04-10T09:39:40.463Z,20.05
2016-04-10T09:40:40.482Z,19.76
2016-04-10T09:41:40.468Z,19.38
2016-04-10T09:42:40.487Z,19.95
2016-04-10T09:43:40.490Z,19.95
2016-04-10T09:44:40.492Z,20.15
2016-04-10T09:45:40.510Z,19.57
2016-04-10T09:46:40.513Z,19.76
2016-04-10T09:47:40.515Z,19.76
2016-04-10T09:48:40.518Z,19.76
2016-04-10T09:49:40.521Z,19.38
2016-04-10T09:50:40.524Z,19.87
2016-04-10T09:51:40.526Z,19.58
2016-04-10T09:52:40.545Z,19.77
2016-04-10T09:53:40.547Z,19.77
2016-04-10T09:54:40.550Z,19.68
2016-04-10T09:55:40.553Z,19.77
2016-04-10T09:56:40.572Z,19.38
2016-04-10T09:57:40.575Z,19.38
2016-04-10T09:58:40.577Z,19.68
2016-04-10T09:59:40.627Z,19.68
2016-04-10T10:00:40.582Z,19.48
2016-04-10T10:01:40.600Z,19.87
2016-04-10T10:02:40.603Z,19.77
2016-04-10T10:03:40.621Z,19.77
2016-04-10T10:04:40.608Z,19.77
2016-04-10T10:05:40.611Z,19.68
2016-04-10T10:06:40.630Z,19.58
2016-04-10T10:07:40.633Z,19.47
2016-04-10T10:08:40.639Z,19.67
2016-04-10T10:09:40.642Z,19.29
2016-04-10T10:10:40.645Z,19.68
2016-04-10T10:11:40.692Z,20.06
2016-04-10T10:12:40.753Z,20.15
2016-04-10T10:13:40.781Z,19.38
2016-04-10T10:14:40.826Z,19.28
2016-04-10T10:15:40.903Z,20.06
2016-04-10T10:16:40.913Z,19.47
2016-04-10T10:17:40.931Z,19.86
2016-04-10T10:18:40.965Z,19.86
2016-04-10T10:19:40.983Z,19.86
2016-04-10T10:20:41.001Z,19.86
2016-04-10T10:21:41.013Z,19.76
2016-04-10T10:22:41.021Z,20.15
2016-04-10T10:23:41.044Z,19.86
2016-04-10T10:24:41.052Z,19.86
2016-04-10T10:25:41.060Z,19.95
2016-04-10T10:26:41.065Z,19.67
2016-04-10T10:27:41.070Z,20.05
2016-04-10T10:28:41.091Z,19.76
2016-04-10T10:29:41.095Z,19.47
2016-04-10T10:30:41.100Z,19.95
2016-04-10T10:31:41.104Z,19.67
2016-04-10T10:32:41.108Z,19.76
2016-04-10T10:33:41.111Z,19.47
2016-04-10T10:34:41.130Z,19.86
2016-04-10T10:35:41.134Z,20.15
2016-04-10T10:36:41.137Z,19.67
2016-04-10T10:37:41.155Z,19.76
2016-04-10T10:38:41.158Z,19.38
2016-04-10T10:39:41.177Z,20.05
2016-04-10T10:40:41.164Z,19.76
2016-04-10T10:41:41.167Z,19.76
2016-04-10T10:42:41.185Z,19.95
2016-04-10T10:43:41.188Z,19.76
2016-04-10T10:44:41.191Z,19.18
2016-04-10T10:45:41.194Z,20.05
2016-04-10T10:46:41.197Z,19.76
2016-04-10T10:47:41.214Z,19.86
2016-04-10T10:48:41.217Z,19.76
2016-04-10T10:49:41.219Z,19.95
2016-04-10T10:50:41.222Z,19.95
2016-04-10T10:51:41.225Z,19.95
2016-04-10T10:52:41.243Z,19.67
2016-04-10T10:53:41.246Z,19.76
2016-04-10T10:54:41.248Z,19.95
2016-04-10T10:55:41.251Z,19.86
2016-04-10T10:56:41.270Z,19.95
2016-04-10T10:57:41.272Z,19.86
2016-04-10T10:58:41.275Z,19.86
2016-04-10T10:59:41.278Z,19.95
2016-04-10T11:00:41.281Z,20.05
2016-04-10T11:01:41.299Z,19.95
2016-04-10T11:02:41.301Z,19.67
2016-04-10T11:03:41.304Z,19.96
2016-04-10T11:04:41.307Z,19.95
2016-04-10T11:05:41.309Z,19.95
2016-04-10T11:06:41.328Z,19.95
2016-04-10T11:07:41.331Z,19.95
2016-04-10T11:08:41.334Z,20.05
2016-04-10T11:09:41.337Z,19.86
2016-04-10T11:10:41.339Z,19.86
2016-04-10T11:11:41.358Z,19.67
2016-04-10T11:12:41.361Z,19.86
2016-04-10T11:13:41.363Z,20.05
2016-04-10T11:14:41.381Z,19.76
2016-04-10T11:15:41.368Z,19.95
2016-04-10T11:16:41.386Z,19.76
2016-04-10T11:17:41.389Z,19.67
2016-04-10T11:18:41.391Z,19.95
2016-04-10T11:19:41.394Z,19.95
2016-04-10T11:20:41.412Z,19.95
2016-04-10T11:21:41.415Z,19.86
2016-04-10T11:22:41.418Z,19.76
2016-04-10T11:23:41.421Z,19.95
2016-04-10T11:24:41.439Z,19.86
2016-04-10T11:25:41.441Z,19.95
2016-04-10T11:26:41.444Z,19.86
2016-04-10T11:27:41.446Z,19.95
2016-04-10T11:28:41.449Z,20.05
2016-04-10T11:29:41.452Z,19.95
2016-04-10T11:30:41.454Z,20.05
2016-04-10T11:31:41.457Z,19.86
2016-04-10T11:32:41.475Z,20.15
2016-04-10T11:33:41.478Z,19.86
2016-04-10T11:34:41.481Z,19.95
2016-04-10T11:35:41.500Z,19.86
2016-04-10T11:36:41.502Z,19.76
2016-04-10T11:37:41.506Z,20.05
2016-04-10T11:38:41.523Z,19.95
2016-04-10T11:39:41.526Z,20.05
2016-04-10T11:40:41.514Z,19.86
2016-04-10T11:41:41.531Z,19.95
2016-04-10T11:42:41.534Z,19.95
2016-04-10T11:43:41.536Z,20.05
2016-04-10T11:44:41.539Z,20.15
2016-04-10T11:45:41.542Z,20.05
2016-04-10T11:46:41.561Z,20.05
2016-04-10T11:47:41.564Z,19.67
2016-04-10T11:48:41.566Z,20.05
2016-04-10T11:49:41.569Z,20.15
2016-04-10T11:50:41.572Z,19.86
2016-04-10T11:51:41.590Z,20.05
2016-04-10T11:52:41.593Z,19.95
2016-04-10T11:53:41.595Z,20.15
2016-04-10T11:54:41.629Z,20.05
2016-04-10T11:55:41.601Z,19.86
2016-04-10T11:56:41.618Z,19.95
2016-04-10T11:57:41.652Z,19.68
2016-04-10T11:58:41.624Z,19.76
2016-04-10T11:59:41.626Z,19.67
2016-04-10T12:00:41.645Z,19.86
2016-04-10T12:01:41.648Z,19.76
2016-04-10T12:02:41.651Z,19.95
2016-04-10T12:03:41.654Z,19.67
2016-04-10T12:04:41.656Z,20.05
2016-04-10T12:05:41.674Z,19.77
2016-04-10T12:06:41.676Z,19.95
2016-04-10T12:07:41.695Z,19.67
2016-04-10T12:08:41.698Z,20.05
2016-04-10T12:09:41.700Z,19.86
2016-04-10T12:10:41.703Z,19.67
2016-04-10T12:11:41.705Z,19.67
2016-04-10T12:12:41.708Z,19.86
2016-04-10T12:13:41.727Z,19.86
2016-04-10T12:14:41.713Z,19.67
2016-04-10T12:15:41.733Z,19.96
2016-04-10T12:16:41.735Z,20.05
2016-04-10T12:17:41.738Z,19.68
2016-04-10T12:18:41.756Z,19.86
2016-04-10T12:19:41.758Z,19.86
2016-04-10T12:20:41.761Z,19.76
2016-04-10T12:21:41.763Z,20.05
2016-04-10T12:22:41.783Z,19.76
2016-04-10T12:23:41.769Z,19.76
2016-04-10T12:24:41.835Z,19.76
2016-04-10T12:25:41.791Z,19.76
2016-04-10T12:26:41.794Z,19.86
2016-04-10T12:27:41.796Z,19.86
2016-04-10T12:28:41.815Z,19.95
2016-04-10T12:29:41.818Z,19.76
2016-04-10T12:30:41.835Z,19.86
2016-04-10T12:31:41.823Z,19.95
2016-04-10T12:32:41.825Z,19.96
2016-04-10T12:33:41.828Z,19.77
2016-04-10T12:34:41.845Z,19.76
2016-04-10T12:35:41.848Z,19.76
2016-04-10T12:36:41.851Z,19.87
2016-04-10T12:37:41.869Z,20.06
2016-04-10T12:38:41.856Z,19.87
2016-04-10T12:39:41.875Z,19.87
2016-04-10T12:40:41.878Z,19.86
2016-04-10T12:41:41.881Z,19.95
2016-04-10T12:42:41.898Z,19.95
2016-04-10T12:43:41.901Z,19.76
2016-04-10T12:44:41.903Z,19.95
2016-04-10T12:45:41.906Z,19.95
2016-04-10T12:46:41.909Z,20.15
2016-04-10T12:47:41.927Z,20.15
2016-04-10T12:48:41.930Z,19.95
2016-04-10T12:49:41.932Z,20.15
2016-04-10T12:50:41.951Z,20.34
2016-04-10T12:51:41.938Z,20.15
2016-04-10T12:52:41.957Z,20.15
2016-04-10T12:53:41.960Z,19.86
2016-04-10T12:54:41.978Z,20.15
2016-04-10T12:55:41.965Z,19.96
2016-04-10T12:56:41.983Z,19.95
2016-04-10T12:57:41.971Z,20.16
2016-04-10T12:58:41.988Z,20.15
2016-04-10T12:59:41.991Z,20.15
2016-04-10T13:00:41.993Z,20.05
2016-04-10T13:01:42.012Z,20.53
2016-04-10T13:02:41.999Z,20.15
2016-04-10T13:03:42.017Z,19.95
2016-04-10T13:04:42.021Z,19.95
2016-04-10T13:05:42.023Z,19.96
2016-04-10T13:06:42.042Z,19.86